sensor_id;sensor_type;location;lat;lon;timestamp;pressure;altitude;pressure_sealevel;temperature;humidity
69535;BME280;56754;51.568;5.048;2023-05-10T00:01:15;100821.44;;;16.55;69.61
69535;BME280;56754;51.568;5.048;2023-05-10T00:03:41;100819.91;;;16.54;69.42
69535;BME280;56754;51.568;5.048;2023-05-10T00:06:06;100828.31;;;16.52;69.52
69535;BME280;56754;51.568;5.048;2023-05-10T00:08:32;100818.66;;;16.51;69.64
69535;BME280;56754;51.568;5.048;2023-05-10T00:10:57;100821.38;;;16.51;69.73
69535;BME280;56754;51.568;5.048;2023-05-10T00:13:22;100817.09;;;16.50;69.58
69535;BME280;56754;51.568;5.048;2023-05-10T00:15:48;100816.31;;;16.50;69.94
69535;BME280;56754;51.568;5.048;2023-05-10T00:18:13;100822.06;;;16.48;69.63
69535;BME280;56754;51.568;5.048;2023-05-10T00:20:38;100824.78;;;16.48;70.09
69535;BME280;56754;51.568;5.048;2023-05-10T00:23:04;100824.78;;;16.48;70.29
69535;BME280;56754;51.568;5.048;2023-05-10T00:25:29;100823.19;;;16.47;69.93
69535;BME280;56754;51.568;5.048;2023-05-10T00:27:54;100816.22;;;16.46;69.96
69535;BME280;56754;51.568;5.048;2023-05-10T00:30:20;100827.03;;;16.46;69.70
69535;BME280;56754;51.568;5.048;2023-05-10T00:32:45;100821.63;;;16.46;69.84
69535;BME280;56754;51.568;5.048;2023-05-10T00:35:10;100827.81;;;16.47;70.12
69535;BME280;56754;51.568;5.048;2023-05-10T00:37:36;100825.47;;;16.45;69.60
69535;BME280;56754;51.568;5.048;2023-05-10T00:40:01;100823.53;;;16.46;69.95
69535;BME280;56754;51.568;5.048;2023-05-10T00:42:26;100825.47;;;16.45;70.24
69535;BME280;56754;51.568;5.048;2023-05-10T00:44:52;100818.47;;;16.44;69.62
69535;BME280;56754;51.568;5.048;2023-05-10T00:47:17;100817.72;;;16.44;70.24
69535;BME280;56754;51.568;5.048;2023-05-10T00:49:43;100811.53;;;16.43;69.95
69535;BME280;56754;51.568;5.048;2023-05-10T00:52:09;100813.44;;;16.43;70.14
69535;BME280;56754;51.568;5.048;2023-05-10T00:54:35;100801.53;;;16.44;69.92
69535;BME280;56754;51.568;5.048;2023-05-10T00:57:00;100808.38;;;16.41;70.08
69535;BME280;56754;51.568;5.048;2023-05-10T00:59:25;100803.81;;;16.42;69.88
69535;BME280;56754;51.568;5.048;2023-05-10T01:01:51;100794.91;;;16.41;69.87
69535;BME280;56754;51.568;5.048;2023-05-10T01:04:17;100808.84;;;16.43;70.22
69535;BME280;56754;51.568;5.048;2023-05-10T01:06:43;100803.81;;;16.42;70.08
69535;BME280;56754;51.568;5.048;2023-05-10T01:09:10;100801.44;;;16.40;70.21
69535;BME280;56754;51.568;5.048;2023-05-10T01:11:36;100796.81;;;16.41;70.14
69535;BME280;56754;51.568;5.048;2023-05-10T01:14:03;100801.44;;;16.40;70.58
69535;BME280;56754;51.568;5.048;2023-05-10T01:16:31;100806.06;;;16.40;69.99
69535;BME280;56754;51.568;5.048;2023-05-10T01:18:57;100806.06;;;16.40;70.07
69535;BME280;56754;51.568;5.048;2023-05-10T01:21:49;100797.97;;;16.40;70.20
69535;BME280;56754;51.568;5.048;2023-05-10T01:30:46;100814.47;;;16.38;69.89
69535;BME280;56754;51.568;5.048;2023-05-10T01:33:35;100814.84;;;16.36;69.12
69535;BME280;56754;51.568;5.048;2023-05-10T01:38:57;100816.31;;;16.34;70.05
69535;BME280;56754;51.568;5.048;2023-05-10T01:41:42;100825.56;;;16.33;70.02
69535;BME280;56754;51.568;5.048;2023-05-10T01:47:12;100822.41;;;16.31;69.98
69535;BME280;56754;51.568;5.048;2023-05-10T01:49:46;100825.13;;;16.31;70.19
69535;BME280;56754;51.568;5.048;2023-05-10T01:52:14;100834.34;;;16.30;70.16
69535;BME280;56754;51.568;5.048;2023-05-10T01:54:43;100828.94;;;16.30;70.23
69535;BME280;56754;51.568;5.048;2023-05-10T01:57:10;100828.94;;;16.30;70.55
69535;BME280;56754;51.568;5.048;2023-05-10T01:59:38;100829.72;;;16.30;70.40
69535;BME280;56754;51.568;5.048;2023-05-10T02:02:06;100820.06;;;16.29;70.21
69535;BME280;56754;51.568;5.048;2023-05-10T02:04:35;100825.44;;;16.29;70.06
69535;BME280;56754;51.568;5.048;2023-05-10T02:07:01;100828.94;;;16.30;70.43
69535;BME280;56754;51.568;5.048;2023-05-10T02:09:27;100823.56;;;16.30;70.46
69535;BME280;56754;51.568;5.048;2023-05-10T02:11:55;100826.59;;;16.28;70.28
69535;BME280;56754;51.568;5.048;2023-05-10T02:14:22;100822.75;;;16.29;70.32
69535;BME280;56754;51.568;5.048;2023-05-10T02:16:47;100828.13;;;16.29;70.52
69535;BME280;56754;51.568;5.048;2023-05-10T02:19:16;100835.91;;;16.31;70.46
69535;BME280;56754;51.568;5.048;2023-05-10T02:21:44;100835.13;;;16.30;70.50
69535;BME280;56754;51.568;5.048;2023-05-10T02:24:11;100842.06;;;16.31;70.44
69535;BME280;56754;51.568;5.048;2023-05-10T02:26:37;100839.38;;;16.31;70.55
69535;BME280;56754;51.568;5.048;2023-05-10T02:29:05;100842.44;;;16.30;70.24
69535;BME280;56754;51.568;5.048;2023-05-10T02:31:32;100843.22;;;16.30;70.46
69535;BME280;56754;51.568;5.048;2023-05-10T02:33:59;100845.91;;;16.30;70.38
69535;BME280;56754;51.568;5.048;2023-05-10T02:36:26;100849.38;;;16.31;70.65
69535;BME280;56754;51.568;5.048;2023-05-10T02:38:52;100842.06;;;16.31;70.33
69535;BME280;56754;51.568;5.048;2023-05-10T02:41:20;100848.25;;;16.32;70.51
69535;BME280;56754;51.568;5.048;2023-05-10T02:43:47;100850.94;;;16.32;70.57
69535;BME280;56754;51.568;5.048;2023-05-10T02:46:14;100852.09;;;16.31;70.39
69535;BME280;56754;51.568;5.048;2023-05-10T02:48:39;100855.56;;;16.31;70.37
69535;BME280;56754;51.568;5.048;2023-05-10T02:51:07;100857.47;;;16.31;70.52
69535;BME280;56754;51.568;5.048;2023-05-10T02:53:36;100862.88;;;16.31;70.53
69535;BME280;56754;51.568;5.048;2023-05-10T02:56:12;100860.19;;;16.31;70.44
69535;BME280;56754;51.568;5.048;2023-05-10T02:58:38;100861.31;;;16.30;70.39
69535;BME280;56754;51.568;5.048;2023-05-10T03:01:04;100867.50;;;16.30;70.45
69535;BME280;56754;51.568;5.048;2023-05-10T03:03:29;100868.28;;;16.31;70.12
69535;BME280;56754;51.568;5.048;2023-05-10T03:05:55;100864.78;;;16.30;70.37
69535;BME280;56754;51.568;5.048;2023-05-10T03:08:20;100864.00;;;16.30;70.43
69535;BME280;56754;51.568;5.048;2023-05-10T03:11:37;100856.69;;;16.30;70.38
69535;BME280;56754;51.568;5.048;2023-05-10T03:16:15;100862.09;;;16.30;70.43
69535;BME280;56754;51.568;5.048;2023-05-10T03:18:55;100861.31;;;16.30;70.24
69535;BME280;56754;51.568;5.048;2023-05-10T03:21:25;100860.19;;;16.31;70.40
69535;BME280;56754;51.568;5.048;2023-05-10T03:24:07;100861.31;;;16.30;70.57
69535;BME280;56754;51.568;5.048;2023-05-10T03:26:33;100871.28;;;16.29;70.04
69535;BME280;56754;51.568;5.048;2023-05-10T03:29:00;100873.22;;;16.29;70.20
69535;BME280;56754;51.568;5.048;2023-05-10T03:31:26;100872.44;;;16.28;70.37
69535;BME280;56754;51.568;5.048;2023-05-10T03:33:52;100873.56;;;16.27;70.33
69535;BME280;56754;51.568;5.048;2023-05-10T03:36:18;100878.19;;;16.27;70.10
69535;BME280;56754;51.568;5.048;2023-05-10T03:38:44;100875.50;;;16.27;70.50
69535;BME280;56754;51.568;5.048;2023-05-10T03:41:09;100882.78;;;16.26;70.38
69535;BME280;56754;51.568;5.048;2023-05-10T03:43:35;100879.31;;;16.26;70.28
69535;BME280;56754;51.568;5.048;2023-05-10T03:46:04;100882.00;;;16.26;70.43
69535;BME280;56754;51.568;5.048;2023-05-10T03:48:30;100878.53;;;16.25;70.27
69535;BME280;56754;51.568;5.048;2023-05-10T03:50:55;100876.59;;;16.26;70.39
69535;BME280;56754;51.568;5.048;2023-05-10T03:53:20;100880.44;;;16.25;70.04
69535;BME280;56754;51.568;5.048;2023-05-10T03:55:46;100883.47;;;16.23;69.92
69535;BME280;56754;51.568;5.048;2023-05-10T03:58:12;100888.09;;;16.23;70.00
69535;BME280;56754;51.568;5.048;2023-05-10T04:00:37;100888.09;;;16.23;70.21
69535;BME280;56754;51.568;5.048;2023-05-10T04:03:03;100887.31;;;16.22;70.32
69535;BME280;56754;51.568;5.048;2023-05-10T04:05:28;100889.22;;;16.22;69.99
69535;BME280;56754;51.568;5.048;2023-05-10T04:07:53;100890.34;;;16.21;70.03
69535;BME280;56754;51.568;5.048;2023-05-10T04:10:19;100889.56;;;16.20;69.68
69535;BME280;56754;51.568;5.048;2023-05-10T04:12:44;100888.00;;;16.19;69.95
69535;BME280;56754;51.568;5.048;2023-05-10T04:15:10;100888.00;;;16.19;69.90
69535;BME280;56754;51.568;5.048;2023-05-10T04:17:35;100884.53;;;16.19;69.84
69535;BME280;56754;51.568;5.048;2023-05-10T04:20:00;100899.56;;;16.20;69.62
69535;BME280;56754;51.568;5.048;2023-05-10T04:22:26;100891.03;;;16.18;69.69
69535;BME280;56754;51.568;5.048;2023-05-10T04:24:51;100889.47;;;16.17;69.77
69535;BME280;56754;51.568;5.048;2023-05-10T04:27:16;100889.47;;;16.17;69.53
69535;BME280;56754;51.568;5.048;2023-05-10T04:29:42;100888.69;;;16.16;70.00
69535;BME280;56754;51.568;5.048;2023-05-10T04:32:07;100890.59;;;16.15;69.74
69535;BME280;56754;51.568;5.048;2023-05-10T04:34:32;100889.81;;;16.15;69.84
69535;BME280;56754;51.568;5.048;2023-05-10T04:36:58;100896.00;;;16.15;69.94
69535;BME280;56754;51.568;5.048;2023-05-10T04:39:23;100896.00;;;16.15;69.84
69535;BME280;56754;51.568;5.048;2023-05-10T04:41:48;100894.41;;;16.14;69.56
69535;BME280;56754;51.568;5.048;2023-05-10T04:44:14;100897.09;;;16.14;69.38
69535;BME280;56754;51.568;5.048;2023-05-10T04:46:39;100891.72;;;16.14;70.01
69535;BME280;56754;51.568;5.048;2023-05-10T04:49:04;100896.34;;;16.14;69.74
69535;BME280;56754;51.568;5.048;2023-05-10T04:51:29;100900.94;;;16.13;69.61
69535;BME280;56754;51.568;5.048;2023-05-10T04:53:55;100896.69;;;16.12;69.65
69535;BME280;56754;51.568;5.048;2023-05-10T04:56:20;100901.72;;;16.14;69.53
69535;BME280;56754;51.568;5.048;2023-05-10T04:58:45;100897.47;;;16.13;69.71
69535;BME280;56754;51.568;5.048;2023-05-10T05:01:11;100905.19;;;16.14;69.75
69535;BME280;56754;51.568;5.048;2023-05-10T05:03:36;100898.25;;;16.13;69.75
69535;BME280;56754;51.568;5.048;2023-05-10T05:06:02;100909.03;;;16.13;69.25
69535;BME280;56754;51.568;5.048;2023-05-10T05:08:28;100914.78;;;16.12;69.18
69535;BME280;56754;51.568;5.048;2023-05-10T05:10:53;100913.66;;;16.13;69.40
69535;BME280;56754;51.568;5.048;2023-05-10T05:13:18;100912.88;;;16.12;69.59
69535;BME280;56754;51.568;5.048;2023-05-10T05:15:44;100910.94;;;16.13;69.64
69535;BME280;56754;51.568;5.048;2023-05-10T05:18:09;100910.94;;;16.13;69.85
69535;BME280;56754;51.568;5.048;2023-05-10T05:20:35;100914.44;;;16.13;69.87
69535;BME280;56754;51.568;5.048;2023-05-10T05:23:00;100925.22;;;16.13;69.93
69535;BME280;56754;51.568;5.048;2023-05-10T05:25:26;100922.50;;;16.13;70.03
69535;BME280;56754;51.568;5.048;2023-05-10T05:27:51;100922.50;;;16.13;69.70
69535;BME280;56754;51.568;5.048;2023-05-10T05:30:16;100924.06;;;16.14;70.04
69535;BME280;56754;51.568;5.048;2023-05-10T05:32:42;100924.88;;;16.15;69.53
69535;BME280;56754;51.568;5.048;2023-05-10T05:35:07;100927.56;;;16.15;70.13
69535;BME280;56754;51.568;5.048;2023-05-10T05:37:33;100929.47;;;16.14;69.66
69535;BME280;56754;51.568;5.048;2023-05-10T05:39:58;100930.28;;;16.15;69.64
69535;BME280;56754;51.568;5.048;2023-05-10T05:42:23;100933.75;;;16.15;69.64
69535;BME280;56754;51.568;5.048;2023-05-10T05:44:49;100940.69;;;16.17;69.83
69535;BME280;56754;51.568;5.048;2023-05-10T05:47:14;100936.88;;;16.18;70.08
69535;BME280;56754;51.568;5.048;2023-05-10T05:49:39;100942.72;;;16.20;70.06
69535;BME280;56754;51.568;5.048;2023-05-10T05:52:05;100932.38;;;16.22;70.03
69535;BME280;56754;51.568;5.048;2023-05-10T05:54:31;100949.78;;;16.24;69.66
69535;BME280;56754;51.568;5.048;2023-05-10T05:56:58;100944.47;;;16.28;69.65
69535;BME280;56754;51.568;5.048;2023-05-10T05:59:23;100946.47;;;16.31;69.26
69535;BME280;56754;51.568;5.048;2023-05-10T06:01:49;100943.88;;;16.34;69.18
69535;BME280;56754;51.568;5.048;2023-05-10T06:04:15;100949.34;;;16.38;69.33
69535;BME280;56754;51.568;5.048;2023-05-10T06:06:40;100945.19;;;16.41;69.26
69535;BME280;56754;51.568;5.048;2023-05-10T06:09:05;100957.97;;;16.44;69.13
69535;BME280;56754;51.568;5.048;2023-05-10T06:11:31;100951.91;;;16.47;69.19
69535;BME280;56754;51.568;5.048;2023-05-10T06:13:56;100956.59;;;16.50;68.88
69535;BME280;56754;51.568;5.048;2023-05-10T06:16:21;100958.28;;;16.54;68.91
69535;BME280;56754;51.568;5.048;2023-05-10T06:18:46;100964.13;;;16.56;68.73
69535;BME280;56754;51.568;5.048;2023-05-10T06:21:12;100959.16;;;16.58;68.59
69535;BME280;56754;51.568;5.048;2023-05-10T06:23:37;100966.13;;;16.59;68.14
69535;BME280;56754;51.568;5.048;2023-05-10T06:26:02;100971.53;;;16.59;68.21
69535;BME280;56754;51.568;5.048;2023-05-10T06:28:28;100976.09;;;16.59;68.12
69535;BME280;56754;51.568;5.048;2023-05-10T06:30:53;100977.69;;;16.60;68.17
69535;BME280;56754;51.568;5.048;2023-05-10T06:33:18;100976.91;;;16.59;68.25
69535;BME280;56754;51.568;5.048;2023-05-10T06:35:47;100981.19;;;16.60;68.02
69535;BME280;56754;51.568;5.048;2023-05-10T06:38:12;100977.34;;;16.61;67.98
69535;BME280;56754;51.568;5.048;2023-05-10T06:40:41;100974.63;;;16.61;68.13
69535;BME280;56754;51.568;5.048;2023-05-10T06:43:06;100986.22;;;16.62;68.09
69535;BME280;56754;51.568;5.048;2023-05-10T06:45:31;100988.13;;;16.61;68.09
69535;BME280;56754;51.568;5.048;2023-05-10T06:47:57;100982.72;;;16.61;68.03
69535;BME280;56754;51.568;5.048;2023-05-10T06:50:22;100986.22;;;16.62;68.08
69535;BME280;56754;51.568;5.048;2023-05-10T06:52:47;100992.41;;;16.63;68.02
69535;BME280;56754;51.568;5.048;2023-05-10T06:55:13;100985.09;;;16.63;67.85
69535;BME280;56754;51.568;5.048;2023-05-10T06:57:38;100995.13;;;16.63;67.79
69535;BME280;56754;51.568;5.048;2023-05-10T07:00:04;100993.97;;;16.64;67.91
69535;BME280;56754;51.568;5.048;2023-05-10T07:02:29;101000.16;;;16.64;67.96
69535;BME280;56754;51.568;5.048;2023-05-10T07:04:55;100995.53;;;16.65;67.88
69535;BME280;56754;51.568;5.048;2023-05-10T07:07:20;101000.94;;;16.65;67.77
69535;BME280;56754;51.568;5.048;2023-05-10T07:09:45;100997.91;;;16.66;67.65
69535;BME280;56754;51.568;5.048;2023-05-10T07:12:11;101010.63;;;16.66;67.52
69535;BME280;56754;51.568;5.048;2023-05-10T07:14:36;101010.63;;;16.66;67.37
69535;BME280;56754;51.568;5.048;2023-05-10T07:17:01;101015.66;;;16.67;67.69
69535;BME280;56754;51.568;5.048;2023-05-10T07:19:27;101016.09;;;16.69;67.48
69535;BME280;56754;51.568;5.048;2023-05-10T07:21:52;101011.16;;;16.71;67.53
69535;BME280;56754;51.568;5.048;2023-05-10T07:24:17;101016.19;;;16.73;67.29
69535;BME280;56754;51.568;5.048;2023-05-10T07:26:43;101020.44;;;16.74;67.21
69535;BME280;56754;51.568;5.048;2023-05-10T07:29:08;101013.16;;;16.74;67.04
69535;BME280;56754;51.568;5.048;2023-05-10T07:31:33;101017.91;;;16.77;67.12
69535;BME280;56754;51.568;5.048;2023-05-10T07:33:59;101015.97;;;16.78;67.12
69535;BME280;56754;51.568;5.048;2023-05-10T07:36:24;101012.13;;;16.79;67.17
69535;BME280;56754;51.568;5.048;2023-05-10T07:38:50;101022.22;;;16.82;67.01
69535;BME280;56754;51.568;5.048;2023-05-10T07:41:15;101018.44;;;16.83;66.91
69535;BME280;56754;51.568;5.048;2023-05-10T07:43:40;101018.06;;;16.85;66.81
69535;BME280;56754;51.568;5.048;2023-05-10T07:46:05;101012.34;;;16.86;66.73
69535;BME280;56754;51.568;5.048;2023-05-10T07:48:31;101019.28;;;16.87;66.85
69535;BME280;56754;51.568;5.048;2023-05-10T07:50:56;101022.44;;;16.89;66.88
69535;BME280;56754;51.568;5.048;2023-05-10T07:53:21;101016.69;;;16.91;66.95
69535;BME280;56754;51.568;5.048;2023-05-10T07:55:51;101017.91;;;16.93;66.74
69535;BME280;56754;51.568;5.048;2023-05-10T07:58:16;101018.34;;;16.95;66.86
69535;BME280;56754;51.568;5.048;2023-05-10T08:00:42;101023.38;;;16.97;66.52
69535;BME280;56754;51.568;5.048;2023-05-10T08:03:07;101019.56;;;16.98;66.59
69535;BME280;56754;51.568;5.048;2023-05-10T08:05:32;101028.44;;;16.98;66.19
69535;BME280;56754;51.568;5.048;2023-05-10T08:07:57;101026.97;;;17.01;66.31
69535;BME280;56754;51.568;5.048;2023-05-10T08:10:24;101030.47;;;17.01;66.18
69535;BME280;56754;51.568;5.048;2023-05-10T08:12:49;101032.00;;;17.02;65.93
69535;BME280;56754;51.568;5.048;2023-05-10T08:15:15;101032.78;;;17.03;66.01
69535;BME280;56754;51.568;5.048;2023-05-10T08:17:40;101037.06;;;17.04;65.97
69535;BME280;56754;51.568;5.048;2023-05-10T08:20:06;101040.56;;;17.04;66.21
69535;BME280;56754;51.568;5.048;2023-05-10T08:22:31;101036.38;;;17.07;65.92
69535;BME280;56754;51.568;5.048;2023-05-10T08:24:56;101046.81;;;17.09;65.94
69535;BME280;56754;51.568;5.048;2023-05-10T08:27:22;101044.56;;;17.11;65.82
69535;BME280;56754;51.568;5.048;2023-05-10T08:29:47;101050.41;;;17.13;66.00
69535;BME280;56754;51.568;5.048;2023-05-10T08:32:13;101049.28;;;17.14;65.75
69535;BME280;56754;51.568;5.048;2023-05-10T08:34:38;101050.84;;;17.15;65.68
69535;BME280;56754;51.568;5.048;2023-05-10T08:37:03;101054.31;;;17.15;65.57
69535;BME280;56754;51.568;5.048;2023-05-10T08:39:29;101057.81;;;17.16;65.40
69535;BME280;56754;51.568;5.048;2023-05-10T08:41:59;101052.06;;;17.17;65.51
69535;BME280;56754;51.568;5.048;2023-05-10T08:44:26;101057.91;;;17.19;65.79
69535;BME280;56754;51.568;5.048;2023-05-10T08:46:53;101052.91;;;17.21;65.73
69535;BME280;56754;51.568;5.048;2023-05-10T08:49:22;101055.63;;;17.21;65.45
69535;BME280;56754;51.568;5.048;2023-05-10T08:51:52;101060.69;;;17.23;65.58
69535;BME280;56754;51.568;5.048;2023-05-10T08:54:19;101054.13;;;17.24;65.70
69535;BME280;56754;51.568;5.048;2023-05-10T08:56:46;101061.91;;;17.25;65.67
69535;BME280;56754;51.568;5.048;2023-05-10T08:59:11;101060.78;;;17.26;65.79
69535;BME280;56754;51.568;5.048;2023-05-10T09:01:37;101062.00;;;17.29;65.87
69535;BME280;56754;51.568;5.048;2023-05-10T09:04:03;101066.25;;;17.30;65.63
69535;BME280;56754;51.568;5.048;2023-05-10T09:06:29;101063.22;;;17.32;65.38
69535;BME280;56754;51.568;5.048;2023-05-10T09:08:54;101077.50;;;17.32;65.69
69535;BME280;56754;51.568;5.048;2023-05-10T09:11:20;101071.75;;;17.34;65.59
69535;BME280;56754;51.568;5.048;2023-05-10T09:13:48;101080.66;;;17.34;65.15
69535;BME280;56754;51.568;5.048;2023-05-10T09:16:15;101074.88;;;17.36;64.96
69535;BME280;56754;51.568;5.048;2023-05-10T09:18:41;101073.78;;;17.37;64.99
69535;BME280;56754;51.568;5.048;2023-05-10T09:21:06;101080.72;;;17.38;64.72
69535;BME280;56754;51.568;5.048;2023-05-10T09:23:31;101086.91;;;17.38;65.71
69535;BME280;56754;51.568;5.048;2023-05-10T09:26:06;101087.69;;;17.39;65.16
69535;BME280;56754;51.568;5.048;2023-05-10T09:28:59;101088.50;;;17.39;65.16
69535;BME280;56754;51.568;5.048;2023-05-10T09:31:25;101091.97;;;17.40;64.85
69535;BME280;56754;51.568;5.048;2023-05-10T09:34:07;101090.06;;;17.40;64.59
69535;BME280;56754;51.568;5.048;2023-05-10T09:36:33;101100.88;;;17.40;65.69
69535;BME280;56754;51.568;5.048;2023-05-10T09:38:58;101101.66;;;17.41;65.68
69535;BME280;56754;51.568;5.048;2023-05-10T09:41:24;101099.72;;;17.41;65.14
69535;BME280;56754;51.568;5.048;2023-05-10T09:43:50;101101.72;;;17.44;65.09
69535;BME280;56754;51.568;5.048;2023-05-10T09:46:16;101096.31;;;17.44;64.78
69535;BME280;56754;51.568;5.048;2023-05-10T09:48:46;101107.56;;;17.46;65.06
69535;BME280;56754;51.568;5.048;2023-05-10T09:51:22;101104.88;;;17.46;64.89
69535;BME280;56754;51.568;5.048;2023-05-10T09:53:47;101110.28;;;17.46;64.94
69535;BME280;56754;51.568;5.048;2023-05-10T09:56:13;101112.63;;;17.48;64.87
69535;BME280;56754;51.568;5.048;2023-05-10T09:58:38;101114.53;;;17.47;65.81
69535;BME280;56754;51.568;5.048;2023-05-10T10:01:04;101107.22;;;17.48;65.74
69535;BME280;56754;51.568;5.048;2023-05-10T10:03:29;101113.44;;;17.48;65.41
69535;BME280;56754;51.568;5.048;2023-05-10T10:05:55;101117.69;;;17.49;65.67
69535;BME280;56754;51.568;5.048;2023-05-10T10:08:20;101111.16;;;17.50;66.00
69535;BME280;56754;51.568;5.048;2023-05-10T10:10:46;101116.22;;;17.52;65.96
69535;BME280;56754;51.568;5.048;2023-05-10T10:13:12;101115.44;;;17.51;66.08
69535;BME280;56754;51.568;5.048;2023-05-10T10:15:38;101121.25;;;17.54;66.26
69535;BME280;56754;51.568;5.048;2023-05-10T10:18:04;101115.84;;;17.54;65.82
69535;BME280;56754;51.568;5.048;2023-05-10T10:20:30;101114.72;;;17.55;65.95
69535;BME280;56754;51.568;5.048;2023-05-10T10:22:55;101117.44;;;17.55;65.77
69535;BME280;56754;51.568;5.048;2023-05-10T10:25:21;101116.28;;;17.56;65.81
69535;BME280;56754;51.568;5.048;2023-05-10T10:30:30;101115.97;;;17.57;65.91
69535;BME280;56754;51.568;5.048;2023-05-10T10:36:01;101125.25;;;17.60;65.88
69535;BME280;56754;51.568;5.048;2023-05-10T10:41:28;101129.19;;;17.62;65.78
69535;BME280;56754;51.568;5.048;2023-05-10T10:52:27;101113.41;;;17.64;66.01
69535;BME280;56754;51.568;5.048;2023-05-10T10:54:58;101107.66;;;17.66;66.19
69535;BME280;56754;51.568;5.048;2023-05-10T10:57:24;101118.91;;;17.68;65.54
69535;BME280;56754;51.568;5.048;2023-05-10T10:59:50;101123.19;;;17.69;65.55
69535;BME280;56754;51.568;5.048;2023-05-10T11:02:42;101121.25;;;17.69;65.40
69535;BME280;56754;51.568;5.048;2023-05-10T11:07:59;101124.03;;;17.73;65.75
69535;BME280;56754;51.568;5.048;2023-05-10T11:10:26;101121.78;;;17.75;65.70
69535;BME280;56754;51.568;5.048;2023-05-10T11:13:04;101119.88;;;17.76;65.97
69535;BME280;56754;51.568;5.048;2023-05-10T11:15:37;101117.94;;;17.76;66.06
69535;BME280;56754;51.568;5.048;2023-05-10T11:18:20;101121.13;;;17.78;66.49
69535;BME280;56754;51.568;5.048;2023-05-10T11:20:57;101120.75;;;17.80;66.19
69535;BME280;56754;51.568;5.048;2023-05-10T11:23:23;101123.91;;;17.82;66.36
69535;BME280;56754;51.568;5.048;2023-05-10T11:25:49;101119.28;;;17.82;66.31
69535;BME280;56754;51.568;5.048;2023-05-10T11:28:17;101117.00;;;17.84;66.31
69535;BME280;56754;51.568;5.048;2023-05-10T11:30:43;101126.69;;;17.85;66.43
69535;BME280;56754;51.568;5.048;2023-05-10T11:33:11;101121.72;;;17.87;66.48
69535;BME280;56754;51.568;5.048;2023-05-10T11:35:40;101124.41;;;17.87;66.10
69535;BME280;56754;51.568;5.048;2023-05-10T11:38:10;101115.94;;;17.89;66.23
69535;BME280;56754;51.568;5.048;2023-05-10T11:40:36;101131.03;;;17.90;66.23
69535;BME280;56754;51.568;5.048;2023-05-10T11:43:02;101123.72;;;17.90;66.26
69535;BME280;56754;51.568;5.048;2023-05-10T11:45:28;101122.56;;;17.91;66.06
69535;BME280;56754;51.568;5.048;2023-05-10T11:47:54;101123.00;;;17.93;65.95
69535;BME280;56754;51.568;5.048;2023-05-10T11:50:20;101122.22;;;17.93;65.87
69535;BME280;56754;51.568;5.048;2023-05-10T11:52:50;101131.13;;;17.93;66.13
69535;BME280;56754;51.568;5.048;2023-05-10T11:55:19;101132.69;;;17.94;65.85
69535;BME280;56754;51.568;5.048;2023-05-10T11:57:44;101140.00;;;17.94;65.97
69535;BME280;56754;51.568;5.048;2023-05-10T12:00:10;101135.38;;;17.94;65.98
69535;BME280;56754;51.568;5.048;2023-05-10T12:02:36;101134.59;;;17.94;66.04
69535;BME280;56754;51.568;5.048;2023-05-10T12:05:02;101132.69;;;17.94;66.12
69535;BME280;56754;51.568;5.048;2023-05-10T12:07:28;101132.34;;;17.96;65.98
69535;BME280;56754;51.568;5.048;2023-05-10T12:12:43;101140.47;;;17.96;66.20
69535;BME280;56754;51.568;5.048;2023-05-10T12:15:22;101141.22;;;17.96;66.00
69535;BME280;56754;51.568;5.048;2023-05-10T12:17:47;101150.91;;;17.98;65.88
69535;BME280;56754;51.568;5.048;2023-05-10T12:20:14;101154.75;;;17.96;65.71
69535;BME280;56754;51.568;5.048;2023-05-10T12:22:40;101150.91;;;17.98;66.03
69535;BME280;56754;51.568;5.048;2023-05-10T12:25:06;101157.09;;;17.98;65.88
69535;BME280;56754;51.568;5.048;2023-05-10T12:27:33;101151.34;;;18.00;65.97
69535;BME280;56754;51.568;5.048;2023-05-10T12:29:59;101159.47;;;18.00;65.52
69535;BME280;56754;51.568;5.048;2023-05-10T12:32:40;101156.41;;;18.01;63.75
69535;BME280;56754;51.568;5.048;2023-05-10T12:35:06;101163.38;;;18.02;65.80
69535;BME280;56754;51.568;5.048;2023-05-10T12:37:31;101162.25;;;18.03;65.87
69535;BME280;56754;51.568;5.048;2023-05-10T12:39:57;101161.09;;;18.04;65.71
69535;BME280;56754;51.568;5.048;2023-05-10T12:42:22;101164.63;;;18.05;65.54
69535;BME280;56754;51.568;5.048;2023-05-10T12:44:47;101165.38;;;18.05;65.47
69535;BME280;56754;51.568;5.048;2023-05-10T12:47:13;101161.91;;;18.05;65.51
69535;BME280;56754;51.568;5.048;2023-05-10T12:49:38;101168.88;;;18.06;65.60
69535;BME280;56754;51.568;5.048;2023-05-10T12:52:03;101177.00;;;18.06;65.35
69535;BME280;56754;51.568;5.048;2023-05-10T12:54:29;101176.22;;;18.05;65.55
69535;BME280;56754;51.568;5.048;2023-05-10T12:56:55;101173.50;;;18.05;65.41
69535;BME280;56754;51.568;5.048;2023-05-10T12:59:21;101182.72;;;18.04;65.54
69535;BME280;56754;51.568;5.048;2023-05-10T13:01:46;101189.72;;;18.05;65.04
69535;BME280;56754;51.568;5.048;2023-05-10T13:04:11;101180.03;;;18.04;65.24
69535;BME280;56754;51.568;5.048;2023-05-10T13:06:37;101175.44;;;18.05;65.57
69535;BME280;56754;51.568;5.048;2023-05-10T13:09:02;101174.63;;;18.04;65.43
69535;BME280;56754;51.568;5.048;2023-05-10T13:11:29;101189.72;;;18.05;65.71
69535;BME280;56754;51.568;5.048;2023-05-10T13:13:54;101192.44;;;18.05;65.52
69535;BME280;56754;51.568;5.048;2023-05-10T13:16:20;101189.72;;;18.05;65.47
69535;BME280;56754;51.568;5.048;2023-05-10T13:18:48;101183.97;;;18.07;65.49
69535;BME280;56754;51.568;5.048;2023-05-10T13:21:14;101179.78;;;18.09;65.56
69535;BME280;56754;51.568;5.048;2023-05-10T13:23:39;101185.97;;;18.10;65.61
69535;BME280;56754;51.568;5.048;2023-05-10T13:26:04;101178.66;;;18.10;65.55